sensor_id;sensor_type;location;lat;lon;timestamp;P1;durP1;ratioP1;P2;durP2;ratioP2
9934;SDS011;5006;41.828;23.478;2022-11-20T00:00:55;5.40;;;1.90;;
9934;SDS011;5006;41.828;23.478;2022-11-20T00:02:01;5.78;;;1.90;;
9934;SDS011;5006;41.828;23.478;2022-11-20T00:03:05;7.53;;;2.22;;
9934;SDS011;5006;41.828;23.478;2022-11-20T00:04:11;5.15;;;2.40;;
9934;SDS011;5006;41.828;23.478;2022-11-20T00:05:16;6.05;;;2.25;;
9934;SDS011;5006;41.828;23.478;2022-11-20T00:06:22;5.18;;;2.15;;
9934;SDS011;5006;41.828;23.478;2022-11-20T00:07:28;5.85;;;2.22;;
9934;SDS011;5006;41.828;23.478;2022-11-20T00:08:33;4.68;;;2.30;;
9934;SDS011;5006;41.828;23.478;2022-11-20T00:09:38;6.07;;;1.92;;
9934;SDS011;5006;41.828;23.478;2022-11-20T00:10:44;4.25;;;2.03;;
9934;SDS011;5006;41.828;23.478;2022-11-20T00:11:50;5.32;;;1.90;;
9934;SDS011;5006;41.828;23.478;2022-11-20T00:12:57;5.90;;;2.03;;
9934;SDS011;5006;41.828;23.478;2022-11-20T00:14:01;5.80;;;2.25;;
9934;SDS011;5006;41.828;23.478;2022-11-20T00:15:08;7.05;;;2.03;;
9934;SDS011;5006;41.828;23.478;2022-11-20T00:16:15;7.95;;;2.53;;
9934;SDS011;5006;41.828;23.478;2022-11-20T00:17:21;5.57;;;2.53;;
9934;SDS011;5006;41.828;23.478;2022-11-20T00:18:26;5.78;;;2.63;;
9934;SDS011;5006;41.828;23.478;2022-11-20T00:19:32;10.70;;;3.00;;
9934;SDS011;5006;41.828;23.478;2022-11-20T00:20:37;7.18;;;2.35;;
9934;SDS011;5006;41.828;23.478;2022-11-20T00:21:42;5.35;;;2.20;;
9934;SDS011;5006;41.828;23.478;2022-11-20T00:22:47;6.47;;;2.33;;
9934;SDS011;5006;41.828;23.478;2022-11-20T00:23:54;6.25;;;2.10;;
9934;SDS011;5006;41.828;23.478;2022-11-20T00:25:00;4.78;;;1.80;;
9934;SDS011;5006;41.828;23.478;2022-11-20T00:26:07;4.80;;;1.80;;
9934;SDS011;5006;41.828;23.478;2022-11-20T00:27:14;3.53;;;1.80;;
9934;SDS011;5006;41.828;23.478;2022-11-20T00:28:19;3.63;;;1.63;;
9934;SDS011;5006;41.828;23.478;2022-11-20T00:29:24;2.10;;;1.20;;
9934;SDS011;5006;41.828;23.478;2022-11-20T00:30:30;2.25;;;1.23;;
9934;SDS011;5006;41.828;23.478;2022-11-20T00:31:34;1.77;;;0.90;;
9934;SDS011;5006;41.828;23.478;2022-11-20T00:32:40;1.15;;;0.88;;
9934;SDS011;5006;41.828;23.478;2022-11-20T00:33:45;5.22;;;1.67;;
9934;SDS011;5006;41.828;23.478;2022-11-20T00:34:51;3.22;;;1.75;;
9934;SDS011;5006;41.828;23.478;2022-11-20T00:35:59;3.35;;;1.33;;
9934;SDS011;5006;41.828;23.478;2022-11-20T00:37:05;3.17;;;1.20;;
9934;SDS011;5006;41.828;23.478;2022-11-20T00:38:10;2.97;;;1.00;;
9934;SDS011;5006;41.828;23.478;2022-11-20T00:39:15;3.20;;;1.30;;
9934;SDS011;5006;41.828;23.478;2022-11-20T00:40:21;3.72;;;1.20;;
9934;SDS011;5006;41.828;23.478;2022-11-20T00:41:26;4.70;;;1.35;;
9934;SDS011;5006;41.828;23.478;2022-11-20T00:42:34;3.38;;;1.17;;
9934;SDS011;5006;41.828;23.478;2022-11-20T00:43:39;3.75;;;1.20;;
9934;SDS011;5006;41.828;23.478;2022-11-20T00:44:44;3.22;;;1.20;;
9934;SDS011;5006;41.828;23.478;2022-11-20T00:45:48;2.17;;;1.00;;
9934;SDS011;5006;41.828;23.478;2022-11-20T00:46:54;1.88;;;0.80;;
9934;SDS011;5006;41.828;23.478;2022-11-20T00:47:59;3.05;;;0.93;;
9934;SDS011;5006;41.828;23.478;2022-11-20T00:49:05;2.50;;;0.80;;
9934;SDS011;5006;41.828;23.478;2022-11-20T00:50:09;1.55;;;0.90;;
9934;SDS011;5006;41.828;23.478;2022-11-20T00:51:16;4.05;;;1.20;;
9934;SDS011;5006;41.828;23.478;2022-11-20T00:52:22;5.50;;;1.80;;
9934;SDS011;5006;41.828;23.478;2022-11-20T00:53:28;4.95;;;1.85;;
9934;SDS011;5006;41.828;23.478;2022-11-20T00:54:32;5.90;;;1.55;;
9934;SDS011;5006;41.828;23.478;2022-11-20T00:55:38;2.72;;;1.38;;
9934;SDS011;5006;41.828;23.478;2022-11-20T00:56:43;2.58;;;0.90;;
9934;SDS011;5006;41.828;23.478;2022-11-20T00:57:50;3.42;;;0.80;;
9934;SDS011;5006;41.828;23.478;2022-11-20T00:58:54;3.42;;;1.10;;
9934;SDS011;5006;41.828;23.478;2022-11-20T01:00:00;3.35;;;1.00;;
9934;SDS011;5006;41.828;23.478;2022-11-20T01:01:06;2.40;;;0.77;;
9934;SDS011;5006;41.828;23.478;2022-11-20T01:02:13;1.95;;;0.73;;
9934;SDS011;5006;41.828;23.478;2022-11-20T01:03:20;1.88;;;0.80;;
9934;SDS011;5006;41.828;23.478;2022-11-20T01:04:26;1.92;;;0.73;;
9934;SDS011;5006;41.828;23.478;2022-11-20T01:05:33;3.63;;;0.70;;
9934;SDS011;5006;41.828;23.478;2022-11-20T01:06:38;1.65;;;0.80;;
9934;SDS011;5006;41.828;23.478;2022-11-20T01:07:44;1.45;;;0.90;;
9934;SDS011;5006;41.828;23.478;2022-11-20T01:08:49;1.52;;;0.73;;
9934;SDS011;5006;41.828;23.478;2022-11-20T01:09:57;2.25;;;0.80;;
9934;SDS011;5006;41.828;23.478;2022-11-20T01:11:02;2.00;;;0.70;;
9934;SDS011;5006;41.828;23.478;2022-11-20T01:12:10;2.65;;;0.90;;
9934;SDS011;5006;41.828;23.478;2022-11-20T01:13:17;1.33;;;0.60;;
9934;SDS011;5006;41.828;23.478;2022-11-20T01:14:40;1.20;;;0.70;;
9934;SDS011;5006;41.828;23.478;2022-11-20T01:15:45;2.53;;;0.77;;
9934;SDS011;5006;41.828;23.478;2022-11-20T01:16:51;1.75;;;0.50;;
9934;SDS011;5006;41.828;23.478;2022-11-20T01:17:57;1.00;;;0.60;;
9934;SDS011;5006;41.828;23.478;2022-11-20T01:19:03;2.97;;;0.70;;
9934;SDS011;5006;41.828;23.478;2022-11-20T01:20:10;1.25;;;0.63;;
9934;SDS011;5006;41.828;23.478;2022-11-20T01:21:15;1.33;;;0.60;;
9934;SDS011;5006;41.828;23.478;2022-11-20T01:22:23;1.33;;;0.70;;
9934;SDS011;5006;41.828;23.478;2022-11-20T01:23:29;1.13;;;0.57;;
9934;SDS011;5006;41.828;23.478;2022-11-20T01:24:36;1.80;;;0.82;;
9934;SDS011;5006;41.828;23.478;2022-11-20T01:25:40;1.58;;;0.80;;
9934;SDS011;5006;41.828;23.478;2022-11-20T01:26:46;1.75;;;0.68;;
9934;SDS011;5006;41.828;23.478;2022-11-20T01:27:52;2.40;;;0.80;;
9934;SDS011;5006;41.828;23.478;2022-11-20T01:29:00;2.88;;;0.70;;
9934;SDS011;5006;41.828;23.478;2022-11-20T01:30:06;1.00;;;0.70;;
9934;SDS011;5006;41.828;23.478;2022-11-20T01:31:12;1.75;;;0.60;;
9934;SDS011;5006;41.828;23.478;2022-11-20T01:32:20;1.25;;;0.75;;
9934;SDS011;5006;41.828;23.478;2022-11-20T01:33:25;3.17;;;0.65;;
9934;SDS011;5006;41.828;23.478;2022-11-20T01:34:31;2.33;;;0.90;;
9934;SDS011;5006;41.828;23.478;2022-11-20T01:35:37;1.60;;;0.80;;
9934;SDS011;5006;41.828;23.478;2022-11-20T01:36:42;3.33;;;0.93;;
9934;SDS011;5006;41.828;23.478;2022-11-20T01:37:49;1.45;;;0.70;;
9934;SDS011;5006;41.828;23.478;2022-11-20T01:38:54;3.10;;;0.77;;
9934;SDS011;5006;41.828;23.478;2022-11-20T01:40:01;0.68;;;0.50;;
9934;SDS011;5006;41.828;23.478;2022-11-20T01:41:07;2.30;;;0.88;;
9934;SDS011;5006;41.828;23.478;2022-11-20T01:42:13;3.03;;;0.90;;
9934;SDS011;5006;41.828;23.478;2022-11-20T01:43:50;0.63;;;0.47;;
9934;SDS011;5006;41.828;23.478;2022-11-20T01:44:57;1.40;;;0.63;;
9934;SDS011;5006;41.828;23.478;2022-11-20T01:46:05;3.40;;;0.85;;
9934;SDS011;5006;41.828;23.478;2022-11-20T01:47:20;2.20;;;0.80;;
9934;SDS011;5006;41.828;23.478;2022-11-20T01:48:31;1.20;;;0.70;;
9934;SDS011;5006;41.828;23.478;2022-11-20T01:49:40;3.13;;;0.80;;
9934;SDS011;5006;41.828;23.478;2022-11-20T01:50:50;2.30;;;0.80;;
9934;SDS011;5006;41.828;23.478;2022-11-20T01:51:58;2.65;;;0.90;;
9934;SDS011;5006;41.828;23.478;2022-11-20T01:53:07;1.73;;;0.73;;
9934;SDS011;5006;41.828;23.478;2022-11-20T01:54:17;2.15;;;0.60;;
9934;SDS011;5006;41.828;23.478;2022-11-20T01:55:27;2.88;;;0.80;;
9934;SDS011;5006;41.828;23.478;2022-11-20T01:56:36;2.67;;;0.70;;
9934;SDS011;5006;41.828;23.478;2022-11-20T01:57:44;2.78;;;0.80;;
9934;SDS011;5006;41.828;23.478;2022-11-20T01:58:53;1.60;;;0.60;;
9934;SDS011;5006;41.828;23.478;2022-11-20T02:00:04;1.20;;;0.70;;
9934;SDS011;5006;41.828;23.478;2022-11-20T02:01:18;2.65;;;0.70;;
9934;SDS011;5006;41.828;23.478;2022-11-20T02:02:22;2.60;;;0.70;;
9934;SDS011;5006;41.828;23.478;2022-11-20T02:03:28;1.90;;;0.70;;
9934;SDS011;5006;41.828;23.478;2022-11-20T02:04:33;2.28;;;0.75;;
9934;SDS011;5006;41.828;23.478;2022-11-20T02:05:40;1.42;;;0.70;;
9934;SDS011;5006;41.828;23.478;2022-11-20T02:06:51;2.38;;;0.90;;
9934;SDS011;5006;41.828;23.478;2022-11-20T02:08:00;4.40;;;0.70;;
9934;SDS011;5006;41.828;23.478;2022-11-20T02:09:07;2.15;;;0.73;;
9934;SDS011;5006;41.828;23.478;2022-11-20T02:10:13;2.70;;;0.70;;
9934;SDS011;5006;41.828;23.478;2022-11-20T02:11:18;2.28;;;0.80;;
9934;SDS011;5006;41.828;23.478;2022-11-20T02:12:24;2.50;;;0.90;;
9934;SDS011;5006;41.828;23.478;2022-11-20T02:13:59;1.20;;;0.60;;
9934;SDS011;5006;41.828;23.478;2022-11-20T02:15:06;2.88;;;0.73;;
9934;SDS011;5006;41.828;23.478;2022-11-20T02:16:15;1.88;;;0.77;;
9934;SDS011;5006;41.828;23.478;2022-11-20T02:17:24;1.33;;;0.80;;
9934;SDS011;5006;41.828;23.478;2022-11-20T02:18:29;2.17;;;1.10;;
9934;SDS011;5006;41.828;23.478;2022-11-20T02:19:35;1.60;;;0.90;;
9934;SDS011;5006;41.828;23.478;2022-11-20T02:20:40;2.15;;;0.63;;
9934;SDS011;5006;41.828;23.478;2022-11-20T02:21:49;2.90;;;0.75;;
9934;SDS011;5006;41.828;23.478;2022-11-20T02:23:03;1.85;;;0.82;;
9934;SDS011;5006;41.828;23.478;2022-11-20T02:24:14;0.70;;;0.60;;
9934;SDS011;5006;41.828;23.478;2022-11-20T02:25:22;2.47;;;0.70;;
9934;SDS011;5006;41.828;23.478;2022-11-20T02:26:30;1.50;;;0.70;;
9934;SDS011;5006;41.828;23.478;2022-11-20T02:27:38;3.50;;;0.90;;
9934;SDS011;5006;41.828;23.478;2022-11-20T02:28:43;2.53;;;0.88;;
9934;SDS011;5006;41.828;23.478;2022-11-20T02:29:50;1.67;;;0.80;;
9934;SDS011;5006;41.828;23.478;2022-11-20T02:31:15;1.92;;;0.70;;
9934;SDS011;5006;41.828;23.478;2022-11-20T02:32:21;3.53;;;0.90;;
9934;SDS011;5006;41.828;23.478;2022-11-20T02:33:27;1.30;;;0.63;;
9934;SDS011;5006;41.828;23.478;2022-11-20T02:34:33;1.38;;;0.70;;
9934;SDS011;5006;41.828;23.478;2022-11-20T02:35:42;1.38;;;0.75;;
9934;SDS011;5006;41.828;23.478;2022-11-20T02:36:49;3.05;;;0.85;;
9934;SDS011;5006;41.828;23.478;2022-11-20T02:37:58;2.35;;;0.90;;
9934;SDS011;5006;41.828;23.478;2022-11-20T02:39:05;1.15;;;0.60;;
9934;SDS011;5006;41.828;23.478;2022-11-20T02:40:13;2.53;;;0.70;;
9934;SDS011;5006;41.828;23.478;2022-11-20T02:41:18;1.40;;;0.63;;
9934;SDS011;5006;41.828;23.478;2022-11-20T02:42:23;1.60;;;0.90;;
9934;SDS011;5006;41.828;23.478;2022-11-20T02:43:28;4.10;;;1.20;;
9934;SDS011;5006;41.828;23.478;2022-11-20T02:44:34;3.30;;;1.10;;
9934;SDS011;5006;41.828;23.478;2022-11-20T02:45:39;3.63;;;1.10;;
9934;SDS011;5006;41.828;23.478;2022-11-20T02:46:45;2.80;;;0.70;;
9934;SDS011;5006;41.828;23.478;2022-11-20T02:47:49;1.63;;;1.00;;
9934;SDS011;5006;41.828;23.478;2022-11-20T02:48:55;4.53;;;1.00;;
9934;SDS011;5006;41.828;23.478;2022-11-20T02:50:00;6.78;;;1.10;;
9934;SDS011;5006;41.828;23.478;2022-11-20T02:51:06;6.03;;;1.90;;
9934;SDS011;5006;41.828;23.478;2022-11-20T02:52:10;4.18;;;1.70;;
9934;SDS011;5006;41.828;23.478;2022-11-20T02:53:16;3.25;;;0.98;;
9934;SDS011;5006;41.828;23.478;2022-11-20T02:54:21;2.42;;;1.00;;
9934;SDS011;5006;41.828;23.478;2022-11-20T02:55:28;1.35;;;0.68;;
9934;SDS011;5006;41.828;23.478;2022-11-20T02:56:33;2.35;;;0.90;;
9934;SDS011;5006;41.828;23.478;2022-11-20T02:57:38;3.17;;;1.10;;
9934;SDS011;5006;41.828;23.478;2022-11-20T02:58:43;3.85;;;1.33;;
9934;SDS011;5006;41.828;23.478;2022-11-20T02:59:49;2.47;;;1.10;;
9934;SDS011;5006;41.828;23.478;2022-11-20T03:00:53;2.90;;;0.90;;
9934;SDS011;5006;41.828;23.478;2022-11-20T03:01:59;3.38;;;1.00;;
9934;SDS011;5006;41.828;23.478;2022-11-20T03:03:04;2.47;;;0.95;;
9934;SDS011;5006;41.828;23.478;2022-11-20T03:04:10;1.88;;;0.80;;
9934;SDS011;5006;41.828;23.478;2022-11-20T03:05:15;4.32;;;1.30;;
9934;SDS011;5006;41.828;23.478;2022-11-20T03:06:20;3.55;;;1.50;;
9934;SDS011;5006;41.828;23.478;2022-11-20T03:07:25;6.00;;;1.50;;
9934;SDS011;5006;41.828;23.478;2022-11-20T03:08:30;4.15;;;1.70;;
9934;SDS011;5006;41.828;23.478;2022-11-20T03:09:35;3.45;;;1.50;;
9934;SDS011;5006;41.828;23.478;2022-11-20T03:10:41;2.47;;;1.30;;
9934;SDS011;5006;41.828;23.478;2022-11-20T03:11:47;4.00;;;1.65;;
9934;SDS011;5006;41.828;23.478;2022-11-20T03:12:52;3.72;;;1.60;;
9934;SDS011;5006;41.828;23.478;2022-11-20T03:14:01;4.22;;;1.60;;
9934;SDS011;5006;41.828;23.478;2022-11-20T03:15:06;4.60;;;1.83;;
9934;SDS011;5006;41.828;23.478;2022-11-20T03:16:13;5.32;;;1.83;;
9934;SDS011;5006;41.828;23.478;2022-11-20T03:17:19;4.85;;;2.00;;
9934;SDS011;5006;41.828;23.478;2022-11-20T03:18:27;4.68;;;1.75;;
9934;SDS011;5006;41.828;23.478;2022-11-20T03:19:31;5.70;;;1.80;;
9934;SDS011;5006;41.828;23.478;2022-11-20T03:20:38;5.57;;;2.05;;
9934;SDS011;5006;41.828;23.478;2022-11-20T03:21:43;5.82;;;1.92;;
9934;SDS011;5006;41.828;23.478;2022-11-20T03:22:49;7.55;;;1.90;;
9934;SDS011;5006;41.828;23.478;2022-11-20T03:23:53;6.57;;;1.58;;
9934;SDS011;5006;41.828;23.478;2022-11-20T03:24:59;4.97;;;1.80;;
9934;SDS011;5006;41.828;23.478;2022-11-20T03:26:10;5.78;;;1.83;;
9934;SDS011;5006;41.828;23.478;2022-11-20T03:27:17;6.53;;;1.75;;
9934;SDS011;5006;41.828;23.478;2022-11-20T03:28:22;6.03;;;2.00;;
9934;SDS011;5006;41.828;23.478;2022-11-20T03:29:28;4.95;;;2.10;;
9934;SDS011;5006;41.828;23.478;2022-11-20T03:30:33;4.93;;;2.40;;
9934;SDS011;5006;41.828;23.478;2022-11-20T03:31:40;7.63;;;2.00;;
9934;SDS011;5006;41.828;23.478;2022-11-20T03:32:45;6.38;;;2.20;;
9934;SDS011;5006;41.828;23.478;2022-11-20T03:33:50;5.75;;;1.65;;
9934;SDS011;5006;41.828;23.478;2022-11-20T03:34:55;5.32;;;1.90;;
9934;SDS011;5006;41.828;23.478;2022-11-20T03:36:02;5.32;;;1.90;;
9934;SDS011;5006;41.828;23.478;2022-11-20T03:37:08;3.78;;;1.80;;
9934;SDS011;5006;41.828;23.478;2022-11-20T03:38:14;7.13;;;2.75;;
9934;SDS011;5006;41.828;23.478;2022-11-20T03:39:18;6.50;;;1.90;;
9934;SDS011;5006;41.828;23.478;2022-11-20T03:40:24;5.70;;;1.77;;
9934;SDS011;5006;41.828;23.478;2022-11-20T03:41:30;3.00;;;1.52;;
9934;SDS011;5006;41.828;23.478;2022-11-20T03:42:41;5.10;;;1.90;;
9934;SDS011;5006;41.828;23.478;2022-11-20T03:43:52;3.13;;;1.70;;
9934;SDS011;5006;41.828;23.478;2022-11-20T03:44:59;3.80;;;1.63;;
9934;SDS011;5006;41.828;23.478;2022-11-20T03:46:04;4.45;;;1.70;;
9934;SDS011;5006;41.828;23.478;2022-11-20T03:47:10;6.18;;;1.80;;
9934;SDS011;5006;41.828;23.478;2022-11-20T03:48:15;4.07;;;1.67;;
9934;SDS011;5006;41.828;23.478;2022-11-20T03:49:21;3.90;;;1.75;;
9934;SDS011;5006;41.828;23.478;2022-11-20T03:50:25;5.90;;;2.10;;
9934;SDS011;5006;41.828;23.478;2022-11-20T03:51:32;4.53;;;1.95;;
9934;SDS011;5006;41.828;23.478;2022-11-20T03:52:37;6.28;;;1.90;;
9934;SDS011;5006;41.828;23.478;2022-11-20T03:53:44;5.07;;;1.90;;
9934;SDS011;5006;41.828;23.478;2022-11-20T03:54:51;7.72;;;2.20;;
9934;SDS011;5006;41.828;23.478;2022-11-20T03:55:55;7.15;;;2.15;;
9934;SDS011;5006;41.828;23.478;2022-11-20T03:57:02;3.30;;;1.70;;
9934;SDS011;5006;41.828;23.478;2022-11-20T03:58:07;5.97;;;2.05;;
9934;SDS011;5006;41.828;23.478;2022-11-20T03:59:13;6.07;;;2.33;;
9934;SDS011;5006;41.828;23.478;2022-11-20T04:00:19;7.38;;;2.78;;
9934;SDS011;5006;41.828;23.478;2022-11-20T04:01:24;8.43;;;2.60;;
9934;SDS011;5006;41.828;23.478;2022-11-20T04:02:31;6.65;;;2.33;;
9934;SDS011;5006;41.828;23.478;2022-11-20T04:03:36;5.32;;;1.80;;
9934;SDS011;5006;41.828;23.478;2022-11-20T04:04:43;5.40;;;1.77;;
9934;SDS011;5006;41.828;23.478;2022-11-20T04:05:48;4.65;;;1.90;;
9934;SDS011;5006;41.828;23.478;2022-11-20T04:06:53;4.10;;;1.52;;
9934;SDS011;5006;41.828;23.478;2022-11-20T04:07:58;3.42;;;1.50;;
9934;SDS011;5006;41.828;23.478;2022-11-20T04:09:04;5.40;;;1.70;;
9934;SDS011;5006;41.828;23.478;2022-11-20T04:10:09;4.78;;;1.80;;
9934;SDS011;5006;41.828;23.478;2022-11-20T04:11:15;2.50;;;1.63;;
9934;SDS011;5006;41.828;23.478;2022-11-20T04:12:23;4.55;;;2.05;;
9934;SDS011;5006;41.828;23.478;2022-11-20T04:13:29;3.50;;;1.50;;
9934;SDS011;5006;41.828;23.478;2022-11-20T04:14:33;4.45;;;1.65;;
9934;SDS011;5006;41.828;23.478;2022-11-20T04:15:38;4.80;;;1.92;;
9934;SDS011;5006;41.828;23.478;2022-11-20T04:16:43;6.88;;;1.92;;
9934;SDS011;5006;41.828;23.478;2022-11-20T04:17:48;5.13;;;1.58;;
9934;SDS011;5006;41.828;23.478;2022-11-20T04:18:54;5.85;;;1.60;;
9934;SDS011;5006;41.828;23.478;2022-11-20T04:20:01;4.88;;;1.42;;
9934;SDS011;5006;41.828;23.478;2022-11-20T04:21:06;3.50;;;1.67;;
9934;SDS011;5006;41.828;23.478;2022-11-20T04:22:12;4.95;;;1.45;;
9934;SDS011;5006;41.828;23.478;2022-11-20T04:23:17;5.60;;;1.60;;
9934;SDS011;5006;41.828;23.478;2022-11-20T04:24:23;3.65;;;1.60;;
9934;SDS011;5006;41.828;23.478;2022-11-20T04:25:28;5.65;;;2.08;;
9934;SDS011;5006;41.828;23.478;2022-11-20T04:26:34;4.20;;;1.80;;
9934;SDS011;5006;41.828;23.478;2022-11-20T04:27:40;7.93;;;2.05;;
9934;SDS011;5006;41.828;23.478;2022-11-20T04:28:46;5.32;;;1.88;;
9934;SDS011;5006;41.828;23.478;2022-11-20T04:29:50;4.90;;;2.03;;
9934;SDS011;5006;41.828;23.478;2022-11-20T04:31:01;3.90;;;2.20;;
9934;SDS011;5006;41.828;23.478;2022-11-20T04:32:06;5.60;;;1.90;;
9934;SDS011;5006;41.828;23.478;2022-11-20T04:33:12;9.27;;;2.85;;
9934;SDS011;5006;41.828;23.478;2022-11-20T04:34:17;10.68;;;6.32;;
9934;SDS011;5006;41.828;23.478;2022-11-20T04:35:22;8.35;;;4.20;;
9934;SDS011;5006;41.828;23.478;2022-11-20T04:36:27;5.38;;;2.67;;
9934;SDS011;5006;41.828;23.478;2022-11-20T04:37:35;6.55;;;2.55;;
9934;SDS011;5006;41.828;23.478;2022-11-20T04:38:39;7.07;;;2.50;;
9934;SDS011;5006;41.828;23.478;2022-11-20T04:39:45;6.25;;;2.97;;
9934;SDS011;5006;41.828;23.478;2022-11-20T04:40:50;6.53;;;3.05;;
9934;SDS011;5006;41.828;23.478;2022-11-20T04:41:56;6.85;;;3.03;;
9934;SDS011;5006;41.828;23.478;2022-11-20T04:43:16;4.70;;;2.42;;
9934;SDS011;5006;41.828;23.478;2022-11-20T04:44:22;6.22;;;2.45;;
9934;SDS011;5006;41.828;23.478;2022-11-20T04:45:28;7.18;;;2.63;;
9934;SDS011;5006;41.828;23.478;2022-11-20T04:46:33;7.18;;;2.10;;
9934;SDS011;5006;41.828;23.478;2022-11-20T04:47:40;5.45;;;2.17;;
9934;SDS011;5006;41.828;23.478;2022-11-20T04:48:44;6.68;;;2.03;;
9934;SDS011;5006;41.828;23.478;2022-11-20T04:49:50;7.85;;;2.22;;
9934;SDS011;5006;41.828;23.478;2022-11-20T04:50:54;6.32;;;2.58;;
9934;SDS011;5006;41.828;23.478;2022-11-20T04:52:00;7.47;;;3.10;;
9934;SDS011;5006;41.828;23.478;2022-11-20T04:53:05;3.92;;;1.90;;
9934;SDS011;5006;41.828;23.478;2022-11-20T04:54:11;5.90;;;1.88;;
9934;SDS011;5006;41.828;23.478;2022-11-20T04:55:15;7.60;;;2.17;;
9934;SDS011;5006;41.828;23.478;2022-11-20T04:56:21;7.10;;;1.98;;
9934;SDS011;5006;41.828;23.478;2022-11-20T04:57:25;5.82;;;2.22;;
9934;SDS011;5006;41.828;23.478;2022-11-20T04:58:32;7.50;;;2.28;;
9934;SDS011;5006;41.828;23.478;2022-11-20T04:59:38;6.55;;;2.28;;
9934;SDS011;5006;41.828;23.478;2022-11-20T05:00:43;6.03;;;2.50;;
9934;SDS011;5006;41.828;23.478;2022-11-20T05:01:47;4.70;;;2.00;;
9934;SDS011;5006;41.828;23.478;2022-11-20T05:02:53;5.07;;;2.15;;
9934;SDS011;5006;41.828;23.478;2022-11-20T05:03:58;3.17;;;1.90;;
9934;SDS011;5006;41.828;23.478;2022-11-20T05:05:03;6.35;;;2.30;;
9934;SDS011;5006;41.828;23.478;2022-11-20T05:06:09;8.00;;;3.40;;
9934;SDS011;5006;41.828;23.478;2022-11-20T05:07:15;5.32;;;2.92;;
9934;SDS011;5006;41.828;23.478;2022-11-20T05:08:21;9.52;;;4.82;;
9934;SDS011;5006;41.828;23.478;2022-11-20T05:09:27;9.40;;;4.10;;
9934;SDS011;5006;41.828;23.478;2022-11-20T05:10:32;6.30;;;3.30;;
9934;SDS011;5006;41.828;23.478;2022-11-20T05:11:37;6.43;;;3.75;;
9934;SDS011;5006;41.828;23.478;2022-11-20T05:12:42;7.15;;;4.28;;
9934;SDS011;5006;41.828;23.478;2022-11-20T05:13:50;7.43;;;4.93;;
9934;SDS011;5006;41.828;23.478;2022-11-20T05:14:55;10.68;;;7.43;;
9934;SDS011;5006;41.828;23.478;2022-11-20T05:16:01;11.85;;;8.25;;
9934;SDS011;5006;41.828;23.478;2022-11-20T05:17:09;8.73;;;6.65;;
9934;SDS011;5006;41.828;23.478;2022-11-20T05:18:15;8.15;;;3.70;;
9934;SDS011;5006;41.828;23.478;2022-11-20T05:19:20;6.30;;;2.50;;
9934;SDS011;5006;41.828;23.478;2022-11-20T05:20:26;6.07;;;2.95;;
9934;SDS011;5006;41.828;23.478;2022-11-20T05:21:31;5.70;;;2.20;;
9934;SDS011;5006;41.828;23.478;2022-11-20T05:22:36;7.05;;;2.38;;
9934;SDS011;5006;41.828;23.478;2022-11-20T05:23:41;5.20;;;2.10;;
9934;SDS011;5006;41.828;23.478;2022-11-20T05:24:49;5.50;;;2.20;;
9934;SDS011;5006;41.828;23.478;2022-11-20T05:25:54;6.78;;;2.60;;
9934;SDS011;5006;41.828;23.478;2022-11-20T05:27:01;5.43;;;2.15;;
9934;SDS011;5006;41.828;23.478;2022-11-20T05:28:07;7.13;;;2.72;;
9934;SDS011;5006;41.828;23.478;2022-11-20T05:29:13;6.47;;;2.47;;
9934;SDS011;5006;41.828;23.478;2022-11-20T05:30:19;5.72;;;2.35;;
9934;SDS011;5006;41.828;23.478;2022-11-20T05:31:24;5.55;;;2.33;;
9934;SDS011;5006;41.828;23.478;2022-11-20T05:32:30;5.68;;;2.40;;
9934;SDS011;5006;41.828;23.478;2022-11-20T05:33:35;7.35;;;2.30;;
9934;SDS011;5006;41.828;23.478;2022-11-20T05:34:41;4.72;;;2.40;;
9934;SDS011;5006;41.828;23.478;2022-11-20T05:35:46;6.97;;;2.30;;
9934;SDS011;5006;41.828;23.478;2022-11-20T05:36:52;9.95;;;2.40;;
9934;SDS011;5006;41.828;23.478;2022-11-20T05:37:58;6.07;;;2.70;;
9934;SDS011;5006;41.828;23.478;2022-11-20T05:39:03;6.00;;;2.25;;
9934;SDS011;5006;41.828;23.478;2022-11-20T05:40:09;6.35;;;2.38;;
9934;SDS011;5006;41.828;23.478;2022-11-20T05:41:16;5.82;;;2.65;;
9934;SDS011;5006;41.828;23.478;2022-11-20T05:42:22;4.07;;;2.03;;
9934;SDS011;5006;41.828;23.478;2022-11-20T05:43:37;8.02;;;2.30;;
9934;SDS011;5006;41.828;23.478;2022-11-20T05:44:45;4.68;;;2.30;;
9934;SDS011;5006;41.828;23.478;2022-11-20T05:45:52;7.25;;;2.50;;
9934;SDS011;5006;41.828;23.478;2022-11-20T05:46:59;6.15;;;2.47;;
9934;SDS011;5006;41.828;23.478;2022-11-20T05:48:03;6.03;;;2.33;;
9934;SDS011;5006;41.828;23.478;2022-11-20T05:49:09;7.90;;;2.30;;
9934;SDS011;5006;41.828;23.478;2022-11-20T05:50:14;4.05;;;2.10;;
9934;SDS011;5006;41.828;23.478;2022-11-20T05:51:20;5.43;;;2.55;;
9934;SDS011;5006;41.828;23.478;2022-11-20T05:52:27;6.38;;;2.38;;
9934;SDS011;5006;41.828;23.478;2022-11-20T05:53:34;4.97;;;2.42;;
9934;SDS011;5006;41.828;23.478;2022-11-20T05:54:39;4.57;;;2.50;;
9934;SDS011;5006;41.828;23.478;2022-11-20T05:55:45;6.13;;;2.53;;
9934;SDS011;5006;41.828;23.478;2022-11-20T05:56:50;6.47;;;2.20;;
9934;SDS011;5006;41.828;23.478;2022-11-20T05:57:56;8.55;;;2.20;;
9934;SDS011;5006;41.828;23.478;2022-11-20T05:59:01;5.05;;;2.30;;
9934;SDS011;5006;41.828;23.478;2022-11-20T06:00:09;5.80;;;2.30;;
9934;SDS011;5006;41.828;23.478;2022-11-20T06:01:15;9.90;;;2.55;;
9934;SDS011;5006;41.828;23.478;2022-11-20T06:02:22;4.78;;;2.45;;
9934;SDS011;5006;41.828;23.478;2022-11-20T06:03:27;9.88;;;2.92;;
9934;SDS011;5006;41.828;23.478;2022-11-20T06:04:32;6.63;;;2.67;;
9934;SDS011;5006;41.828;23.478;2022-11-20T06:05:37;5.18;;;2.22;;
9934;SDS011;5006;41.828;23.478;2022-11-20T06:06:43;5.10;;;2.30;;
9934;SDS011;5006;41.828;23.478;2022-11-20T06:07:47;6.80;;;2.35;;
9934;SDS011;5006;41.828;23.478;2022-11-20T06:08:53;7.35;;;2.40;;
9934;SDS011;5006;41.828;23.478;2022-11-20T06:09:58;5.10;;;2.20;;
9934;SDS011;5006;41.828;23.478;2022-11-20T06:11:04;6.35;;;2.55;;
9934;SDS011;5006;41.828;23.478;2022-11-20T06:12:10;4.88;;;1.83;;
9934;SDS011;5006;41.828;23.478;2022-11-20T06:13:16;6.20;;;2.33;;
9934;SDS011;5006;41.828;23.478;2022-11-20T06:14:21;7.15;;;2.20;;
9934;SDS011;5006;41.828;23.478;2022-11-20T06:15:28;6.30;;;2.47;;
9934;SDS011;5006;41.828;23.478;2022-11-20T06:16:32;6.22;;;2.72;;
9934;SDS011;5006;41.828;23.478;2022-11-20T06:17:39;7.97;;;2.63;;
9934;SDS011;5006;41.828;23.478;2022-11-20T06:18:43;8.60;;;2.60;;
9934;SDS011;5006;41.828;23.478;2022-11-20T06:19:49;7.85;;;2.75;;
9934;SDS011;5006;41.828;23.478;2022-11-20T06:20:58;7.68;;;2.63;;
9934;SDS011;5006;41.828;23.478;2022-11-20T06:22:04;6.40;;;2.40;;
9934;SDS011;5006;41.828;23.478;2022-11-20T06:23:11;7.57;;;2.78;;
9934;SDS011;5006;41.828;23.478;2022-11-20T06:24:16;7.97;;;3.17;;
9934;SDS011;5006;41.828;23.478;2022-11-20T06:25:22;8.70;;;3.42;;
9934;SDS011;5006;41.828;23.478;2022-11-20T06:26:27;9.05;;;3.20;;
9934;SDS011;5006;41.828;23.478;2022-11-20T06:27:33;7.78;;;3.13;;
9934;SDS011;5006;41.828;23.478;2022-11-20T06:28:38;6.03;;;3.10;;
9934;SDS011;5006;41.828;23.478;2022-11-20T06:29:44;5.43;;;2.80;;
9934;SDS011;5006;41.828;23.478;2022-11-20T06:30:50;7.40;;;3.35;;
9934;SDS011;5006;41.828;23.478;2022-11-20T06:31:55;5.72;;;2.92;;
9934;SDS011;5006;41.828;23.478;2022-11-20T06:33:00;7.53;;;2.88;;
9934;SDS011;5006;41.828;23.478;2022-11-20T06:34:06;4.75;;;2.20;;
9934;SDS011;5006;41.828;23.478;2022-11-20T06:35:11;6.47;;;2.20;;
9934;SDS011;5006;41.828;23.478;2022-11-20T06:36:18;8.45;;;3.00;;
9934;SDS011;5006;41.828;23.478;2022-11-20T06:37:24;9.57;;;2.72;;
9934;SDS011;5006;41.828;23.478;2022-11-20T06:38:30;5.30;;;2.35;;
9934;SDS011;5006;41.828;23.478;2022-11-20T06:39:34;8.07;;;3.08;;
9934;SDS011;5006;41.828;23.478;2022-11-20T06:40:40;6.45;;;2.63;;
9934;SDS011;5006;41.828;23.478;2022-11-20T06:41:45;7.25;;;2.42;;
9934;SDS011;5006;41.828;23.478;2022-11-20T06:42:53;4.93;;;2.38;;
9934;SDS011;5006;41.828;23.478;2022-11-20T06:43:58;6.25;;;2.50;;
9934;SDS011;5006;41.828;23.478;2022-11-20T06:45:04;7.78;;;2.90;;
9934;SDS011;5006;41.828;23.478;2022-11-20T06:46:11;5.72;;;2.80;;